Time;durP1;ratioP1;P1;durP2;ratioP2;P2;SDS_P1;SDS_P2;PMS_P1;PMS_P2;Temp;Humidity;BMP_temperature;BMP_pressure;BME280_temperature;BME280_humidity;BME280_pressure;Samples;Min_cycle;Max_cycle;Signal;HPM_P1;HPM_P2
2022/11/19 00:00:39;;;;;;;3.13;2.92;;;;;;;;;;5061972;28;20196;-67
2022/11/19 00:03:05;;;;;;;3.92;3.42;;;;;;;;;;5061778;28;20205;-67
2022/11/19 00:05:31;;;;;;;4.15;3.85;;;;;;;;;;5061933;28;20504;-67
2022/11/19 00:07:57;;;;;;;5.03;3.35;;;;;;;;;;5061751;28;20197;-67
2022/11/19 00:10:24;;;;;;;3.58;3.30;;;;;;;;;;5061786;28;20201;-67
2022/11/19 00:12:55;;;;;;;4.50;2.97;;;;;;;;;;5061673;28;20240;-67
2022/11/19 00:15:23;;;;;;;3.40;3.10;;;;;;;;;;5061532;28;20200;-67
2022/11/19 00:17:49;;;;;;;3.17;2.70;;;;;;;;;;5061596;28;20501;-67
2022/11/19 00:20:16;;;;;;;2.95;2.75;;;;;;;;;;5061400;28;20403;-67
2022/11/19 00:22:43;;;;;;;3.03;2.78;;;;;;;;;;5061791;28;20226;-67
2022/11/19 00:25:09;;;;;;;4.25;2.65;;;;;;;;;;5061600;28;20243;-67
2022/11/19 00:27:36;;;;;;;2.97;2.50;;;;;;;;;;5061305;28;20219;-67
2022/11/19 00:30:03;;;;;;;2.15;2.05;;;;;;;;;;5061399;28;20399;-67
2022/11/19 00:32:30;;;;;;;2.60;2.50;;;;;;;;;;5061898;28;20201;-67
2022/11/19 00:34:57;;;;;;;2.80;2.60;;;;;;;;;;5061605;28;20196;-67
2022/11/19 00:37:23;;;;;;;3.25;2.70;;;;;;;;;;5061648;28;20227;-67
2022/11/19 00:39:49;;;;;;;2.35;2.25;;;;;;;;;;5064338;28;20350;-67
2022/11/19 00:42:16;;;;;;;2.47;2.38;;;;;;;;;;5065550;28;20231;-67
2022/11/19 00:44:42;;;;;;;2.20;2.00;;;;;;;;;;5065523;28;20204;-67
2022/11/19 00:47:08;;;;;;;2.25;2.03;;;;;;;;;;5065506;28;20284;-67
2022/11/19 00:49:36;;;;;;;2.25;2.15;;;;;;;;;;5065130;28;20201;-67
2022/11/19 00:52:02;;;;;;;2.78;1.98;;;;;;;;;;5065303;28;20203;-67
2022/11/19 00:54:28;;;;;;;1.92;1.80;;;;;;;;;;5065283;28;20204;-67
2022/11/19 00:56:55;;;;;;;2.50;2.30;;;;;;;;;;5065030;28;20220;-67
2022/11/19 00:59:21;;;;;;;1.70;1.60;;;;;;;;;;5064865;28;20235;-67
2022/11/19 01:01:47;;;;;;;1.73;1.63;;;;;;;;;;5065234;28;20197;-67
2022/11/19 01:04:13;;;;;;;1.20;1.20;;;;;;;;;;5065079;28;20204;-67
2022/11/19 01:06:41;;;;;;;1.70;1.60;;;;;;;;;;5064950;28;20501;-67
2022/11/19 01:09:07;;;;;;;1.60;1.58;;;;;;;;;;5064733;28;20197;-67
2022/11/19 01:11:34;;;;;;;1.92;1.80;;;;;;;;;;5064867;28;20216;-67
2022/11/19 01:14:01;;;;;;;2.65;1.90;;;;;;;;;;5064801;28;20519;-67
2022/11/19 01:16:28;;;;;;;2.03;1.92;;;;;;;;;;5064912;28;20229;-67
2022/11/19 01:18:55;;;;;;;4.05;2.30;;;;;;;;;;5064280;28;20205;-67
2022/11/19 01:21:22;;;;;;;2.22;2.13;;;;;;;;;;5064951;28;20189;-67
2022/11/19 01:23:50;;;;;;;2.10;2.00;;;;;;;;;;5064708;28;20197;-67
2022/11/19 01:26:17;;;;;;;2.38;2.25;;;;;;;;;;5064546;28;20201;-67
2022/11/19 01:28:43;;;;;;;1.88;1.88;;;;;;;;;;5064426;28;20217;-67
2022/11/19 01:31:11;;;;;;;2.53;2.10;;;;;;;;;;5064623;28;20496;-68
2022/11/19 01:33:37;;;;;;;2.88;2.40;;;;;;;;;;5064455;28;20205;-68
2022/11/19 01:36:05;;;;;;;2.17;1.48;;;;;;;;;;5064491;28;20217;-68
2022/11/19 01:38:32;;;;;;;2.50;2.30;;;;;;;;;;5064327;28;20200;-68
2022/11/19 01:40:59;;;;;;;1.77;1.67;;;;;;;;;;5064287;28;20197;-68
2022/11/19 01:43:39;;;;;;;1.60;1.50;;;;;;;;;;5064595;28;20207;-68
2022/11/19 01:46:07;;;;;;;1.60;1.50;;;;;;;;;;5064525;28;20192;-68
2022/11/19 01:48:35;;;;;;;2.83;1.77;;;;;;;;;;5064031;28;20417;-68
2022/11/19 01:51:04;;;;;;;2.35;1.75;;;;;;;;;;5063761;28;20204;-68
2022/11/19 01:53:31;;;;;;;2.35;1.38;;;;;;;;;;5064038;28;20525;-68
2022/11/19 01:56:02;;;;;;;1.30;1.25;;;;;;;;;;5064327;28;20217;-68
2022/11/19 01:58:31;;;;;;;2.20;1.30;;;;;;;;;;5064010;28;20197;-68
2022/11/19 02:00:57;;;;;;;2.72;1.35;;;;;;;;;;5063898;28;20197;-68
2022/11/19 02:03:24;;;;;;;1.27;1.23;;;;;;;;;;5063922;28;20205;-68
2022/11/19 02:05:51;;;;;;;2.20;1.20;;;;;;;;;;5063786;28;20193;-68
2022/11/19 02:08:36;;;;;;;1.20;1.20;;;;;;;;;;5062998;28;20504;-68
2022/11/19 02:11:07;;;;;;;1.48;1.20;;;;;;;;;;5063614;28;20211;-68
2022/11/19 02:13:40;;;;;;;1.27;1.17;;;;;;;;;;5063933;28;20205;-67
2022/11/19 02:16:08;;;;;;;1.75;1.45;;;;;;;;;;5063740;28;20219;-67
2022/11/19 02:18:37;;;;;;;1.75;1.42;;;;;;;;;;5063364;28;20205;-67
2022/11/19 02:21:17;;;;;;;4.40;1.15;;;;;;;;;;5063653;28;20205;-67
2022/11/19 02:23:58;;;;;;;1.00;1.00;;;;;;;;;;5063436;28;20203;-67
2022/11/19 02:26:44;;;;;;;1.90;1.27;;;;;;;;;;5063716;28;20193;-67
2022/11/19 02:29:18;;;;;;;1.42;1.33;;;;;;;;;;5063194;28;20432;-67
2022/11/19 02:31:50;;;;;;;1.20;1.20;;;;;;;;;;5063300;28;20385;-67
2022/11/19 02:34:19;;;;;;;1.15;1.13;;;;;;;;;;5063322;28;20205;-67
2022/11/19 02:36:48;;;;;;;1.55;1.45;;;;;;;;;;5063380;28;20221;-67
2022/11/19 02:39:16;;;;;;;3.15;1.60;;;;;;;;;;5063123;28;20563;-67
2022/11/19 02:41:48;;;;;;;1.70;1.60;;;;;;;;;;5063253;28;20205;-67
2022/11/19 02:47:05;;;;;;;3.08;1.45;;;;;;;;;;5063077;28;20189;-67
2022/11/19 02:49:32;;;;;;;1.55;1.38;;;;;;;;;;5063188;28;20197;-67
2022/11/19 02:51:59;;;;;;;2.15;1.70;;;;;;;;;;5063051;28;20201;-67
2022/11/19 02:54:26;;;;;;;2.00;1.23;;;;;;;;;;5062905;28;20219;-67
2022/11/19 02:56:52;;;;;;;2.00;1.70;;;;;;;;;;5062809;28;20221;-67
2022/11/19 03:04:52;;;;;;;1.63;1.52;;;;;;;;;;5062843;28;20199;-67
2022/11/19 03:07:19;;;;;;;3.20;1.80;;;;;;;;;;5062613;28;20193;-67
2022/11/19 03:09:47;;;;;;;3.70;1.90;;;;;;;;;;5062458;28;20496;-67
2022/11/19 03:12:17;;;;;;;1.92;1.50;;;;;;;;;;5062740;28;20196;-67
2022/11/19 03:17:37;;;;;;;1.85;1.50;;;;;;;;;;5062479;28;20399;-67
2022/11/19 03:20:08;;;;;;;1.83;1.65;;;;;;;;;;5062202;28;20511;-67
2022/11/19 03:22:37;;;;;;;2.13;1.60;;;;;;;;;;5062419;28;20212;-67
2022/11/19 03:25:05;;;;;;;2.03;1.75;;;;;;;;;;5062518;28;20492;-67
2022/11/19 03:27:34;;;;;;;1.48;1.42;;;;;;;;;;5062332;28;20209;-67
2022/11/19 03:30:02;;;;;;;1.95;1.75;;;;;;;;;;5062310;28;20519;-67
2022/11/19 03:32:30;;;;;;;3.38;1.40;;;;;;;;;;5062173;28;20235;-68
2022/11/19 03:34:59;;;;;;;1.40;1.38;;;;;;;;;;5062300;28;20406;-68
2022/11/19 03:37:26;;;;;;;2.60;1.50;;;;;;;;;;5062215;28;20419;-68
2022/11/19 03:39:55;;;;;;;1.60;1.50;;;;;;;;;;5061865;28;20239;-68
2022/11/19 03:42:22;;;;;;;1.70;1.60;;;;;;;;;;5062277;28;20222;-68
2022/11/19 03:44:50;;;;;;;1.92;1.83;;;;;;;;;;5062054;28;20197;-67
2022/11/19 03:47:17;;;;;;;1.50;1.50;;;;;;;;;;5061956;28;20198;-67
2022/11/19 03:49:46;;;;;;;1.55;1.45;;;;;;;;;;5061754;28;20197;-67
2022/11/19 03:52:15;;;;;;;2.22;1.70;;;;;;;;;;5061939;28;20211;-68
2022/11/19 03:54:41;;;;;;;1.58;1.58;;;;;;;;;;5061888;28;20203;-68
2022/11/19 03:57:09;;;;;;;2.00;1.75;;;;;;;;;;5061873;28;20213;-68
2022/11/19 03:59:35;;;;;;;1.58;1.52;;;;;;;;;;5061497;28;20207;-68
2022/11/19 04:02:03;;;;;;;1.45;1.35;;;;;;;;;;5062043;28;20522;-68
2022/11/19 04:04:38;;;;;;;2.72;1.60;;;;;;;;;;5061857;28;20207;-68
2022/11/19 04:07:08;;;;;;;1.77;1.15;;;;;;;;;;5061825;28;20478;-68
2022/11/19 04:09:35;;;;;;;1.67;1.40;;;;;;;;;;5061608;28;20211;-67
2022/11/19 04:12:02;;;;;;;2.72;1.35;;;;;;;;;;5061541;28;20204;-67
2022/11/19 04:14:28;;;;;;;1.35;1.33;;;;;;;;;;5061721;28;20203;-67
2022/11/19 04:16:55;;;;;;;1.30;1.30;;;;;;;;;;5061772;28;20551;-67
2022/11/19 04:19:21;;;;;;;1.88;1.20;;;;;;;;;;5061564;28;20205;-67
2022/11/19 04:21:48;;;;;;;1.60;1.50;;;;;;;;;;5061709;28;20193;-67
2022/11/19 04:24:14;;;;;;;1.52;1.42;;;;;;;;;;5061527;28;20496;-67
2022/11/19 04:26:42;;;;;;;1.10;1.10;;;;;;;;;;5061379;28;20189;-67
2022/11/19 04:29:08;;;;;;;1.20;1.20;;;;;;;;;;5061261;28;20217;-68
2022/11/19 04:31:35;;;;;;;3.53;1.40;;;;;;;;;;5061642;28;20196;-68
2022/11/19 04:34:01;;;;;;;2.55;1.27;;;;;;;;;;5061628;28;20207;-67
2022/11/19 04:36:27;;;;;;;1.48;1.38;;;;;;;;;;5061483;28;20372;-67
2022/11/19 04:38:54;;;;;;;1.73;1.73;;;;;;;;;;5061749;28;20208;-65
2022/11/19 04:41:20;;;;;;;1.40;1.30;;;;;;;;;;5061347;28;20197;-65
2022/11/19 04:43:48;;;;;;;1.70;1.60;;;;;;;;;;5061580;28;20396;-65
2022/11/19 04:46:14;;;;;;;1.42;1.33;;;;;;;;;;5061612;28;20247;-65
2022/11/19 04:48:40;;;;;;;1.70;1.60;;;;;;;;;;5061549;28;20489;-65
2022/11/19 04:51:06;;;;;;;1.98;1.60;;;;;;;;;;5061427;28;20204;-66
2022/11/19 04:53:33;;;;;;;1.50;1.33;;;;;;;;;;5061286;28;20199;-66
2022/11/19 04:55:59;;;;;;;2.25;1.48;;;;;;;;;;5061332;28;20224;-66
2022/11/19 04:58:25;;;;;;;1.40;1.30;;;;;;;;;;5061093;28;20216;-66
2022/11/19 05:00:53;;;;;;;1.63;1.50;;;;;;;;;;5061370;28;20208;-66
2022/11/19 05:03:19;;;;;;;2.35;1.30;;;;;;;;;;5061671;28;20422;-66
2022/11/19 05:05:45;;;;;;;2.22;1.20;;;;;;;;;;5061674;28;20197;-66
2022/11/19 05:08:12;;;;;;;1.73;1.60;;;;;;;;;;5061675;28;20216;-66
2022/11/19 05:10:38;;;;;;;2.38;1.40;;;;;;;;;;5061639;28;20216;-65
2022/11/19 05:13:04;;;;;;;1.45;1.45;;;;;;;;;;5061141;28;20197;-65
2022/11/19 05:15:30;;;;;;;1.58;1.50;;;;;;;;;;5061351;28;20197;-66
2022/11/19 05:17:58;;;;;;;1.60;1.50;;;;;;;;;;5060980;28;20418;-66
2022/11/19 05:20:24;;;;;;;3.42;1.30;;;;;;;;;;5061011;28;20212;-66
2022/11/19 05:22:51;;;;;;;1.98;1.63;;;;;;;;;;5061053;28;20370;-66
2022/11/19 05:25:17;;;;;;;1.83;1.73;;;;;;;;;;5063278;28;20201;-66
2022/11/19 05:27:43;;;;;;;2.28;1.75;;;;;;;;;;5064385;28;20493;-66
2022/11/19 05:30:10;;;;;;;3.15;1.90;;;;;;;;;;5064558;28;20197;-66
2022/11/19 05:32:36;;;;;;;1.58;1.58;;;;;;;;;;5064748;28;20398;-66
2022/11/19 05:35:05;;;;;;;1.60;1.55;;;;;;;;;;5064400;28;20203;-66
2022/11/19 05:37:31;;;;;;;1.70;1.70;;;;;;;;;;5064320;28;20233;-66
2022/11/19 05:39:57;;;;;;;1.70;1.60;;;;;;;;;;5064146;28;20194;-66
2022/11/19 05:42:24;;;;;;;3.30;1.88;;;;;;;;;;5064493;28;20211;-66
2022/11/19 05:44:50;;;;;;;2.25;1.98;;;;;;;;;;5064379;28;20197;-66
2022/11/19 05:47:16;;;;;;;2.05;1.40;;;;;;;;;;5064267;28;20205;-66
2022/11/19 05:49:43;;;;;;;1.52;1.40;;;;;;;;;;5064005;28;20469;-66
2022/11/19 05:52:11;;;;;;;1.67;1.55;;;;;;;;;;5064267;28;20576;-66
2022/11/19 05:54:37;;;;;;;1.65;1.65;;;;;;;;;;5064129;28;20204;-66
2022/11/19 05:57:04;;;;;;;1.77;1.65;;;;;;;;;;5064098;28;20217;-66
2022/11/19 05:59:30;;;;;;;2.30;1.35;;;;;;;;;;5063881;28;20422;-66
2022/11/19 06:01:57;;;;;;;1.42;1.40;;;;;;;;;;5064015;28;20209;-66
2022/11/19 06:04:23;;;;;;;1.27;1.20;;;;;;;;;;5063921;28;20373;-66
2022/11/19 06:06:49;;;;;;;1.92;1.60;;;;;;;;;;5063677;28;20205;-66
2022/11/19 06:09:17;;;;;;;1.40;1.35;;;;;;;;;;5063673;28;20394;-66
2022/11/19 06:11:49;;;;;;;1.75;1.65;;;;;;;;;;5063739;28;20224;-66
2022/11/19 06:14:16;;;;;;;3.47;1.45;;;;;;;;;;5063576;28;20205;-68
2022/11/19 06:16:43;;;;;;;1.80;1.70;;;;;;;;;;5063438;28;20194;-68
2022/11/19 06:19:09;;;;;;;1.45;1.35;;;;;;;;;;5063165;28;20225;-68
2022/11/19 06:21:35;;;;;;;1.70;1.25;;;;;;;;;;5063717;28;20197;-68
2022/11/19 06:24:02;;;;;;;2.78;1.55;;;;;;;;;;5063562;28;20205;-68
2022/11/19 06:26:29;;;;;;;2.13;1.50;;;;;;;;;;5063429;28;20397;-67
2022/11/19 06:28:56;;;;;;;1.38;1.38;;;;;;;;;;5063119;28;20235;-67
2022/11/19 06:31:22;;;;;;;1.92;1.48;;;;;;;;;;5063351;28;20516;-67
2022/11/19 06:33:49;;;;;;;2.25;1.60;;;;;;;;;;5063329;28;20369;-67
2022/11/19 06:36:15;;;;;;;1.30;1.30;;;;;;;;;;5062377;28;20197;-67
2022/11/19 06:38:41;;;;;;;1.73;1.40;;;;;;;;;;5063186;28;20221;-67
2022/11/19 06:41:08;;;;;;;1.50;1.40;;;;;;;;;;5063128;28;20200;-67
2022/11/19 06:43:35;;;;;;;1.35;1.35;;;;;;;;;;5063336;28;20374;-67
2022/11/19 06:46:02;;;;;;;1.67;1.58;;;;;;;;;;5063205;28;20201;-67
2022/11/19 06:48:28;;;;;;;1.60;1.50;;;;;;;;;;5062824;28;20535;-67
2022/11/19 06:50:54;;;;;;;1.70;1.60;;;;;;;;;;5063250;28;20208;-67
2022/11/19 06:53:20;;;;;;;2.25;1.35;;;;;;;;;;5063429;28;20387;-67
2022/11/19 06:55:47;;;;;;;1.50;1.40;;;;;;;;;;5063116;28;20204;-68
2022/11/19 06:58:13;;;;;;;1.40;1.40;;;;;;;;;;5062750;28;20217;-68
2022/11/19 07:00:41;;;;;;;1.90;1.80;;;;;;;;;;5062772;28;20200;-68
2022/11/19 07:03:07;;;;;;;1.50;1.35;;;;;;;;;;5062976;28;20404;-68
2022/11/19 07:05:33;;;;;;;1.45;1.35;;;;;;;;;;5062914;28;20407;-68
2022/11/19 07:07:59;;;;;;;1.70;1.60;;;;;;;;;;5062696;28;20189;-68
2022/11/19 07:10:26;;;;;;;1.40;1.40;;;;;;;;;;5062803;28;20551;-68
2022/11/19 07:12:52;;;;;;;2.85;2.63;;;;;;;;;;5062831;28;20201;-68
2022/11/19 07:15:18;;;;;;;9.32;4.03;;;;;;;;;;5062563;28;20203;-68
2022/11/19 07:17:46;;;;;;;8.20;4.40;;;;;;;;;;5062487;28;20540;-68
2022/11/19 07:20:13;;;;;;;7.82;4.05;;;;;;;;;;5062534;28;20205;-68
2022/11/19 07:22:40;;;;;;;3.97;3.47;;;;;;;;;;5062684;28;20220;-68
2022/11/19 07:25:08;;;;;;;4.95;3.80;;;;;;;;;;5062495;28;20223;-68
2022/11/19 07:27:34;;;;;;;3.90;3.10;;;;;;;;;;5062195;28;20267;-68
2022/11/19 07:30:03;;;;;;;3.08;2.88;;;;;;;;;;5062226;28;20264;-68
2022/11/19 07:32:29;;;;;;;4.50;3.78;;;;;;;;;;5062311;28;20204;-68
2022/11/19 07:34:57;;;;;;;4.47;3.88;;;;;;;;;;5062465;28;20255;-69
2022/11/19 07:37:23;;;;;;;4.70;3.97;;;;;;;;;;5062230;28;20218;-69
2022/11/19 07:39:49;;;;;;;4.15;3.78;;;;;;;;;;5061967;28;20201;-69
2022/11/19 07:44:59;;;;;;;4.85;2.97;;;;;;;;;;5062053;28;20196;-69
2022/11/19 07:47:26;;;;;;;2.85;2.65;;;;;;;;;;5061953;28;20500;-69
2022/11/19 07:49:53;;;;;;;3.17;2.40;;;;;;;;;;5062168;28;20495;-69
2022/11/19 07:52:20;;;;;;;2.17;1.98;;;;;;;;;;5062026;28;20371;-69
2022/11/19 07:54:47;;;;;;;4.15;2.10;;;;;;;;;;5061868;28;20446;-69
2022/11/19 07:57:13;;;;;;;2.10;2.00;;;;;;;;;;5062091;28;20197;-69
2022/11/19 07:59:40;;;;;;;2.10;2.00;;;;;;;;;;5061437;28;20531;-69
2022/11/19 08:02:06;;;;;;;2.78;2.15;;;;;;;;;;5061912;28;20197;-69
2022/11/19 08:04:32;;;;;;;2.08;1.98;;;;;;;;;;5061856;28;20544;-69
2022/11/19 08:06:58;;;;;;;2.58;2.03;;;;;;;;;;5061863;28;20203;-69
2022/11/19 08:09:26;;;;;;;3.78;2.30;;;;;;;;;;5061519;28;20201;-69
2022/11/19 08:11:52;;;;;;;3.28;2.40;;;;;;;;;;5061914;28;20377;-69
2022/11/19 08:14:19;;;;;;;2.80;2.60;;;;;;;;;;5061977;28;20197;-69
2022/11/19 08:19:29;;;;;;;6.25;3.53;;;;;;;;;;5061486;28;20228;-70
2022/11/19 08:21:55;;;;;;;5.28;4.30;;;;;;;;;;5061477;28;20225;-69
2022/11/19 08:24:22;;;;;;;4.18;3.88;;;;;;;;;;5061822;28;20197;-70
2022/11/19 08:26:50;;;;;;;3.38;3.15;;;;;;;;;;5061891;28;20252;-59
2022/11/19 08:29:18;;;;;;;3.15;2.95;;;;;;;;;;5061448;28;20213;-59
2022/11/19 08:31:45;;;;;;;3.13;2.92;;;;;;;;;;5061726;28;20197;-59
2022/11/19 08:34:12;;;;;;;4.90;3.08;;;;;;;;;;5061292;28;20212;-59
2022/11/19 08:36:38;;;;;;;3.30;3.10;;;;;;;;;;5061648;28;20204;-58
2022/11/19 08:39:05;;;;;;;2.35;2.20;;;;;;;;;;5061070;28;20220;-57
2022/11/19 08:44:17;;;;;;;2.10;1.90;;;;;;;;;;5061318;28;20227;-59
2022/11/19 08:46:43;;;;;;;2.55;2.35;;;;;;;;;;5061349;28;20260;-59
2022/11/19 08:49:10;;;;;;;1.85;1.75;;;;;;;;;;5061058;28;20193;-59
2022/11/19 08:51:37;;;;;;;3.95;2.00;;;;;;;;;;5061587;28;20373;-57
2022/11/19 08:54:03;;;;;;;2.35;2.15;;;;;;;;;;5061226;28;20197;-59
2022/11/19 08:56:30;;;;;;;3.42;1.83;;;;;;;;;;5061542;28;20523;-59
2022/11/19 08:58:56;;;;;;;4.05;2.03;;;;;;;;;;5054274;28;20256;-56
2022/11/19 09:01:24;;;;;;;1.70;1.70;;;;;;;;;;5058688;28;20205;-57
2022/11/19 09:03:51;;;;;;;2.08;1.90;;;;;;;;;;5047831;28;20213;-59
2022/11/19 09:06:18;;;;;;;1.77;1.77;;;;;;;;;;5059695;28;20534;-57
2022/11/19 09:08:44;;;;;;;1.67;1.67;;;;;;;;;;5059171;28;20276;-59
2022/11/19 09:11:11;;;;;;;11.23;2.40;;;;;;;;;;5059118;28;20209;-57
2022/11/19 09:13:38;;;;;;;2.30;1.77;;;;;;;;;;5059233;28;20512;-56
2022/11/19 09:16:05;;;;;;;2.35;1.90;;;;;;;;;;5059446;28;20281;-56
2022/11/19 09:18:33;;;;;;;2.10;1.90;;;;;;;;;;5058877;28;20237;-58
2022/11/19 09:20:59;;;;;;;1.52;1.52;;;;;;;;;;5046732;28;20327;-57
2022/11/19 09:23:26;;;;;;;1.67;1.65;;;;;;;;;;5059510;28;20228;-60
2022/11/19 09:25:56;;;;;;;1.65;1.65;;;;;;;;;;5059228;28;20532;-60
2022/11/19 09:28:23;;;;;;;2.10;1.85;;;;;;;;;;5058941;28;20245;-60
2022/11/19 09:30:54;;;;;;;2.08;1.95;;;;;;;;;;5058815;28;20364;-60
2022/11/19 09:33:21;;;;;;;2.40;2.20;;;;;;;;;;5059429;28;20215;-59
2022/11/19 09:35:48;;;;;;;1.98;1.88;;;;;;;;;;5059702;28;20209;-60
2022/11/19 09:38:14;;;;;;;2.45;2.10;;;;;;;;;;5058881;28;20243;-59
2022/11/19 09:40:43;;;;;;;3.05;1.98;;;;;;;;;;5059093;28;20219;-60
2022/11/19 09:43:14;;;;;;;2.75;2.58;;;;;;;;;;5059265;28;20209;-59
2022/11/19 09:45:45;;;;;;;1.77;1.67;;;;;;;;;;5059362;28;20209;-60
2022/11/19 09:48:23;;;;;;;1.95;1.70;;;;;;;;;;5058984;28;20205;-60
2022/11/19 09:50:57;;;;;;;1.85;1.70;;;;;;;;;;5058850;28;20508;-59
2022/11/19 09:53:23;;;;;;;2.83;1.80;;;;;;;;;;5058780;28;20208;-59
2022/11/19 09:55:52;;;;;;;1.20;1.15;;;;;;;;;;5058872;28;20217;-59
2022/11/19 09:58:21;;;;;;;1.30;1.20;;;;;;;;;;5058380;28;20245;-59
2022/11/19 10:00:47;;;;;;;0.90;0.90;;;;;;;;;;5058665;28;20243;-58
2022/11/19 10:03:15;;;;;;;3.40;1.00;;;;;;;;;;5058799;28;20610;-57
2022/11/19 10:05:48;;;;;;;0.98;0.98;;;;;;;;;;5058652;28;20216;-58
2022/11/19 10:08:22;;;;;;;1.30;0.95;;;;;;;;;;5058185;28;20635;-58
2022/11/19 10:10:53;;;;;;;1.65;1.10;;;;;;;;;;5058509;28;20208;-58
2022/11/19 10:13:31;;;;;;;1.50;0.95;;;;;;;;;;5059169;28;20239;-58
2022/11/19 10:16:02;;;;;;;0.80;0.80;;;;;;;;;;5059062;28;20231;-58
2022/11/19 10:18:32;;;;;;;1.25;1.13;;;;;;;;;;5058051;28;20443;-58
2022/11/19 10:21:02;;;;;;;1.45;1.40;;;;;;;;;;5058386;28;20408;-58
2022/11/19 10:23:35;;;;;;;1.13;0.90;;;;;;;;;;5058337;28;20280;-58
2022/11/19 10:26:04;;;;;;;1.98;1.05;;;;;;;;;;5058436;28;20430;-58
2022/11/19 10:28:31;;;;;;;1.40;1.40;;;;;;;;;;5057784;28;20549;-58
2022/11/19 10:31:05;;;;;;;1.92;1.30;;;;;;;;;;5058118;28;20209;-57
2022/11/19 10:33:33;;;;;;;1.20;1.08;;;;;;;;;;5058049;28;20231;-58
2022/11/19 10:36:02;;;;;;;1.63;1.08;;;;;;;;;;5058184;28;20466;-58
2022/11/19 10:38:32;;;;;;;1.45;1.35;;;;;;;;;;5057618;28;20224;-58
2022/11/19 10:41:04;;;;;;;2.53;1.70;;;;;;;;;;5058083;28;20516;-58
2022/11/19 10:43:32;;;;;;;2.55;1.00;;;;;;;;;;5057984;28;20209;-58
2022/11/19 10:46:00;;;;;;;1.80;1.20;;;;;;;;;;5057933;28;20590;-58
2022/11/19 10:48:36;;;;;;;1.55;1.08;;;;;;;;;;5057287;28;20241;-59
2022/11/19 10:51:09;;;;;;;1.40;1.30;;;;;;;;;;5057755;28;20240;-58
2022/11/19 10:53:37;;;;;;;1.35;1.13;;;;;;;;;;5057706;28;20516;-59
2022/11/19 10:56:09;;;;;;;1.00;1.00;;;;;;;;;;5057856;28;20436;-59
2022/11/19 10:58:38;;;;;;;1.52;1.05;;;;;;;;;;5057266;28;20225;-58
2022/11/19 11:01:11;;;;;;;2.28;1.02;;;;;;;;;;5057640;28;20209;-59
2022/11/19 11:03:42;;;;;;;1.10;1.08;;;;;;;;;;5058044;28;20411;-59
2022/11/19 11:06:09;;;;;;;2.60;1.02;;;;;;;;;;5058333;28;20374;-57
2022/11/19 11:08:46;;;;;;;1.95;1.23;;;;;;;;;;5057108;28;20247;-59
2022/11/19 11:14:50;;;;;;;4.07;1.52;;;;;;;;;;5057754;28;20406;-59
2022/11/19 11:16:55;;;;;;;1.77;0.80;;;;;;;;;;5057349;28;20244;-59
2022/11/19 11:19:22;;;;;;;1.23;1.23;;;;;;;;;;5056380;28;20301;-59
2022/11/19 11:21:51;;;;;;;1.85;0.88;;;;;;;;;;5056850;28;20209;-59
2022/11/19 11:24:17;;;;;;;1.10;1.10;;;;;;;;;;5057033;28;20224;-59
2022/11/19 11:26:45;;;;;;;1.73;1.17;;;;;;;;;;5056931;28;20522;-59
2022/11/19 11:29:24;;;;;;;1.50;1.23;;;;;;;;;;5056326;28;20232;-59
2022/11/19 11:31:51;;;;;;;1.65;1.50;;;;;;;;;;5057161;28;20223;-58
2022/11/19 11:34:28;;;;;;;1.38;1.27;;;;;;;;;;5052915;28;20280;-57
2022/11/19 11:36:55;;;;;;;1.33;1.00;;;;;;;;;;5057101;28;20209;-59
2022/11/19 11:39:23;;;;;;;2.40;1.08;;;;;;;;;;5056269;28;20455;-58
2022/11/19 11:41:51;;;;;;;1.17;1.10;;;;;;;;;;5056846;28;20213;-57
2022/11/19 11:44:19;;;;;;;1.63;1.08;;;;;;;;;;5056477;28;20600;-59
2022/11/19 11:46:46;;;;;;;1.50;1.40;;;;;;;;;;5056975;28;20239;-58
2022/11/19 11:49:27;;;;;;;2.10;1.33;;;;;;;;;;5055857;28;20211;-59
2022/11/19 11:52:05;;;;;;;1.40;1.35;;;;;;;;;;5035623;28;20208;-59
2022/11/19 11:54:32;;;;;;;1.98;1.50;;;;;;;;;;5054686;28;20497;-59
2022/11/19 11:57:14;;;;;;;3.78;1.23;;;;;;;;;;5057143;28;20513;-57
2022/11/19 11:59:41;;;;;;;1.88;1.60;;;;;;;;;;5056189;28;20237;-58
2022/11/19 12:02:17;;;;;;;1.65;1.52;;;;;;;;;;5056546;28;20209;-57
2022/11/19 12:04:43;;;;;;;1.90;1.50;;;;;;;;;;5055906;28;20230;-58
2022/11/19 12:07:15;;;;;;;1.23;1.05;;;;;;;;;;5056367;28;20215;-58
2022/11/19 12:09:45;;;;;;;1.65;1.08;;;;;;;;;;5056016;28;20205;-57
2022/11/19 12:12:16;;;;;;;3.00;1.20;;;;;;;;;;5056271;28;20208;-57
2022/11/19 12:14:45;;;;;;;3.35;1.10;;;;;;;;;;5038263;28;20213;-59
2022/11/19 12:17:22;;;;;;;1.63;1.55;;;;;;;;;;5036254;28;20414;-59
2022/11/19 12:20:10;;;;;;;1.33;1.20;;;;;;;;;;5035355;28;20790;-58
2022/11/19 12:22:43;;;;;;;2.13;1.58;;;;;;;;;;5055435;28;20216;-58
2022/11/19 12:25:19;;;;;;;1.05;0.95;;;;;;;;;;5070940;28;20208;-59
2022/11/19 12:27:51;;;;;;;2.38;1.27;;;;;;;;;;5055723;28;20228;-59
2022/11/19 12:30:19;;;;;;;1.02;0.90;;;;;;;;;;5055639;28;20391;-59
2022/11/19 12:32:55;;;;;;;1.67;1.58;;;;;;;;;;5056009;28;20551;-58
2022/11/19 12:35:26;;;;;;;2.83;1.10;;;;;;;;;;5059941;28;20399;-58
2022/11/19 12:37:59;;;;;;;1.95;0.93;;;;;;;;;;5059835;28;20707;-58
2022/11/19 12:40:30;;;;;;;2.67;1.13;;;;;;;;;;5063304;28;20523;-60
2022/11/19 12:43:02;;;;;;;2.65;0.93;;;;;;;;;;5065895;28;20272;-60
2022/11/19 12:45:35;;;;;;;4.75;1.60;;;;;;;;;;5065732;28;20197;-59
2022/11/19 12:48:09;;;;;;;1.60;1.50;;;;;;;;;;5065536;28;20268;-60
2022/11/19 12:50:43;;;;;;;2.13;1.00;;;;;;;;;;5065398;28;20196;-60
2022/11/19 12:53:14;;;;;;;1.13;1.13;;;;;;;;;;5065558;28;20514;-60
2022/11/19 12:55:44;;;;;;;3.90;1.50;;;;;;;;;;5065481;28;20500;-60
2022/11/19 12:58:18;;;;;;;2.95;1.30;;;;;;;;;;5065124;28;20220;-60
2022/11/19 13:00:50;;;;;;;2.67;1.75;;;;;;;;;;5065081;28;20217;-57
2022/11/19 13:03:20;;;;;;;3.83;1.88;;;;;;;;;;5064897;28;20204;-60
2022/11/19 13:05:50;;;;;;;1.98;1.75;;;;;;;;;;5065383;28;20197;-60
2022/11/19 13:08:18;;;;;;;2.45;1.80;;;;;;;;;;5064862;28;20193;-60
2022/11/19 13:10:47;;;;;;;3.35;1.80;;;;;;;;;;5064828;28;20193;-60
2022/11/19 13:13:17;;;;;;;3.05;1.70;;;;;;;;;;5064125;28;20201;-58
2022/11/19 13:15:45;;;;;;;1.80;1.70;;;;;;;;;;5064180;28;20205;-58
2022/11/19 13:18:13;;;;;;;2.53;1.70;;;;;;;;;;5064665;28;20492;-58
2022/11/19 13:20:44;;;;;;;2.17;2.03;;;;;;;;;;5064813;28;20224;-58
2022/11/19 13:23:15;;;;;;;2.92;2.60;;;;;;;;;;5064942;28;20205;-58
2022/11/19 13:25:42;;;;;;;2.60;1.85;;;;;;;;;;5064745;28;20196;-58
2022/11/19 13:28:13;;;;;;;2.35;2.00;;;;;;;;;;5064239;28;20216;-58
2022/11/19 13:30:42;;;;;;;2.58;1.30;;;;;;;;;;5064488;28;20193;-57
2022/11/19 13:33:14;;;;;;;3.00;2.00;;;;;;;;;;5064679;28;20201;-58
2022/11/19 13:35:45;;;;;;;1.90;1.80;;;;;;;;;;5064420;28;20211;-58
2022/11/19 13:38:15;;;;;;;2.13;1.85;;;;;;;;;;5064329;28;20200;-58
2022/11/19 13:40:44;;;;;;;2.63;1.88;;;;;;;;;;5064215;28;20252;-58
2022/11/19 13:46:02;;;;;;;2.05;1.92;;;;;;;;;;5063633;28;20236;-58
2022/11/19 13:48:31;;;;;;;1.60;1.60;;;;;;;;;;5064145;28;20216;-58
2022/11/19 13:50:59;;;;;;;1.95;1.85;;;;;;;;;;5064199;28;20193;-58
2022/11/19 13:53:29;;;;;;;1.88;1.77;;;;;;;;;;5064079;28;20197;-58
2022/11/19 13:55:56;;;;;;;1.50;1.40;;;;;;;;;;5064202;28;20185;-58
2022/11/19 13:58:26;;;;;;;3.17;1.90;;;;;;;;;;5063801;28;20197;-58
2022/11/19 14:01:15;;;;;;;2.92;2.05;;;;;;;;;;5064001;28;20242;-58
2022/11/19 14:03:49;;;;;;;2.58;1.95;;;;;;;;;;5063799;28;20200;-58
2022/11/19 14:06:22;;;;;;;5.90;3.58;;;;;;;;;;5064102;28;20480;-57
2022/11/19 14:08:55;;;;;;;4.25;3.92;;;;;;;;;;5063816;28;20204;-58
2022/11/19 14:11:27;;;;;;;3.25;2.97;;;;;;;;;;5063884;28;20189;-58
2022/11/19 14:14:02;;;;;;;4.22;3.50;;;;;;;;;;5063738;28;20197;-58
2022/11/19 14:27:54;;;;;;;3.13;2.97;;;;;;;;;;5063474;28;20235;-58
2022/11/19 14:30:21;;;;;;;3.72;2.15;;;;;;;;;;5063732;28;20200;-58
2022/11/19 14:32:50;;;;;;;2.58;2.38;;;;;;;;;;5063574;28;20264;-58
2022/11/19 14:35:40;;;;;;;3.20;2.83;;;;;;;;;;5063793;28;20500;-58
2022/11/19 14:38:31;;;;;;;3.22;3.03;;;;;;;;;;5063425;28;20504;-58
2022/11/19 14:41:18;;;;;;;3.25;3.05;;;;;;;;;;5063459;28;20442;-58
2022/11/19 14:44:10;;;;;;;3.72;3.30;;;;;;;;;;5063635;28;20211;-58
2022/11/19 14:46:40;;;;;;;3.22;3.03;;;;;;;;;;5063524;28;20383;-58
2022/11/19 14:49:18;;;;;;;3.35;3.15;;;;;;;;;;5063020;28;20197;-58
2022/11/19 14:51:50;;;;;;;3.25;2.95;;;;;;;;;;5063245;28;20559;-58
2022/11/19 14:54:23;;;;;;;3.33;3.13;;;;;;;;;;5063363;28;20197;-58
2022/11/19 14:56:59;;;;;;;3.28;2.85;;;;;;;;;;5062594;28;20433;-58
2022/11/19 14:59:26;;;;;;;4.90;3.72;;;;;;;;;;5062934;28;20200;-58
2022/11/19 15:01:56;;;;;;;4.10;3.65;;;;;;;;;;5063036;28;20204;-58
2022/11/19 15:04:28;;;;;;;3.08;2.90;;;;;;;;;;5063357;28;20197;-59
2022/11/19 15:06:55;;;;;;;4.03;2.35;;;;;;;;;;5062987;28;20197;-59
2022/11/19 15:09:40;;;;;;;3.65;2.85;;;;;;;;;;5062842;28;20197;-59
2022/11/19 15:12:06;;;;;;;4.25;4.03;;;;;;;;;;5062639;28;20212;-59
2022/11/19 15:15:03;;;;;;;2.63;2.42;;;;;;;;;;5055691;28;20213;-58
2022/11/19 15:17:28;;;;;;;3.53;3.33;;;;;;;;;;5054548;28;20216;-57
2022/11/19 15:20:00;;;;;;;3.58;3.38;;;;;;;;;;5048913;28;20229;-58
2022/11/19 15:22:32;;;;;;;6.50;3.40;;;;;;;;;;5052200;28;20459;-57
2022/11/19 15:25:08;;;;;;;2.95;2.63;;;;;;;;;;5037161;28;20485;-57
2022/11/19 15:27:41;;;;;;;3.53;3.25;;;;;;;;;;5037376;28;20261;-58
2022/11/19 15:30:11;;;;;;;3.08;2.78;;;;;;;;;;5037799;28;20209;-57